Time;durP1;ratioP1;P1;durP2;ratioP2;P2;SDS_P1;SDS_P2;PMS_P1;PMS_P2;Temp;Humidity;BMP_temperature;BMP_pressure;BME280_temperature;BME280_humidity;BME280_pressure;Samples;Min_cycle;Max_cycle;Signal;HPM_P1;HPM_P2
2022/10/28 00:00:29;;;;;;;38.67;23.77;;;;;;;11.68;100.00;100556.19;6042578;23;20634;-89
2022/10/28 00:02:59;;;;;;;29.30;24.13;;;;;;;11.62;100.00;100552.47;6067962;23;20214;-90
2022/10/28 00:05:27;;;;;;;34.13;24.07;;;;;;;11.69;100.00;100560.53;6019096;23;20289;-90
2022/10/28 00:07:54;;;;;;;33.00;24.00;;;;;;;11.62;100.00;100552.47;6042815;23;20219;-89
2022/10/28 00:10:21;;;;;;;28.77;23.10;;;;;;;11.63;100.00;100555.97;6018492;23;20267;-91
2022/10/28 00:12:47;;;;;;;30.67;24.17;;;;;;;11.58;100.00;100561.97;6042333;23;20670;-89
2022/10/28 00:15:14;;;;;;;31.83;23.90;;;;;;;11.59;100.00;100560.94;6067931;23;20224;-92
2022/10/28 00:17:40;;;;;;;29.13;23.73;;;;;;;11.54;100.00;100552.66;6042819;23;20741;-90
2022/10/28 00:20:08;;;;;;;34.13;25.20;;;;;;;11.58;100.00;100559.28;6018881;23;20213;-91
2022/10/28 00:22:34;;;;;;;32.43;24.77;;;;;;;11.59;100.00;100557.44;6043063;23;20730;-92
2022/10/28 00:25:01;;;;;;;30.00;24.27;;;;;;;11.59;100.00;100547.53;6042568;23;20279;-92
2022/10/28 00:27:28;;;;;;;31.80;25.17;;;;;;;11.60;100.00;100551.03;6042593;23;20213;-91
2022/10/28 00:29:55;;;;;;;29.70;24.10;;;;;;;11.59;100.00;100555.56;6019369;23;20705;-91
2022/10/28 00:32:22;;;;;;;29.77;23.73;;;;;;;11.60;100.00;100551.88;5995416;23;20199;-91
2022/10/28 00:34:49;;;;;;;29.07;24.23;;;;;;;11.65;100.00;100549.41;6019039;23;20213;-92
2022/10/28 00:37:15;;;;;;;28.10;22.93;;;;;;;11.60;100.00;100542.97;6019165;23;20692;-92
2022/10/28 00:39:42;;;;;;;24.23;21.53;;;;;;;11.61;100.00;100548.16;6019806;23;20207;-92
2022/10/28 00:42:09;;;;;;;24.83;21.00;;;;;;;11.64;100.00;100554.97;5995393;23;20648;-93
2022/10/28 00:44:42;;;;;;;28.87;22.57;;;;;;;11.64;100.00;100560.31;6019799;23;20202;-93
2022/10/28 00:47:50;;;;;;;29.70;21.60;;;;;;;11.58;100.00;100559.28;6042848;23;20655;-92
2022/10/28 00:50:26;;;;;;;26.07;22.27;;;;;;;11.57;100.00;100554.13;6041403;23;20253;-88
2022/10/28 00:52:57;;;;;;;25.73;21.70;;;;;;;11.54;100.00;100552.66;6018029;23;20306;-90
2022/10/28 00:55:24;;;;;;;27.20;23.07;;;;;;;11.57;100.00;100557.63;6067190;23;20602;-88
2022/10/28 00:57:55;;;;;;;28.33;22.83;;;;;;;11.58;100.00;100555.75;6067004;23;20213;-89
2022/10/28 01:00:23;;;;;;;27.27;21.80;;;;;;;11.58;100.00;100545.03;6042605;23;20208;-89
2022/10/28 01:02:50;;;;;;;25.50;21.27;;;;;;;11.64;100.00;100547.75;6018633;23;20213;-90
2022/10/28 01:05:21;;;;;;;24.70;22.07;;;;;;;11.58;100.00;100534.28;6018178;23;20220;-90
2022/10/28 01:07:49;;;;;;;25.47;21.53;;;;;;;11.66;100.00;100543.00;6041632;23;20216;-89
2022/10/28 01:10:16;;;;;;;29.30;21.30;;;;;;;11.60;100.00;100541.13;6066360;23;20662;-88
2022/10/28 01:13:02;;;;;;;27.47;21.00;;;;;;;11.58;100.00;100536.97;6041949;23;20213;-89
2022/10/28 01:15:44;;;;;;;25.17;20.70;;;;;;;11.59;100.00;100539.47;6067281;23;20214;-89
2022/10/28 01:18:37;;;;;;;26.43;21.43;;;;;;;11.59;100.00;100533.28;6066466;23;20292;-88
2022/10/28 01:21:18;;;;;;;25.27;21.03;;;;;;;11.57;100.00;100538.84;6067258;23;20232;-90
2022/10/28 01:24:29;;;;;;;26.07;20.70;;;;;;;11.47;100.00;100531.22;6067077;23;20213;-88
2022/10/28 01:27:14;;;;;;;27.47;21.63;;;;;;;11.49;100.00;100531.81;6023053;23;20293;-89
2022/10/28 01:29:54;;;;;;;26.87;20.83;;;;;;;11.52;100.00;100530.59;6066755;23;20228;-86
2022/10/28 01:32:59;;;;;;;24.57;21.43;;;;;;;11.51;100.00;100526.25;6066913;23;20214;-88
2022/10/28 01:35:43;;;;;;;26.97;21.13;;;;;;;11.53;100.00;100521.50;6042649;23;20221;-92
2022/10/28 01:38:23;;;;;;;29.33;21.37;;;;;;;11.50;100.00;100527.28;6020881;23;20215;-91
2022/10/28 01:41:05;;;;;;;26.40;21.07;;;;;;;11.48;100.00;100530.16;6069816;23;20282;-92
2022/10/28 01:43:37;;;;;;;23.43;19.97;;;;;;;11.53;100.00;100540.28;6044093;23;20683;-91
2022/10/28 01:46:30;;;;;;;26.93;20.00;;;;;;;11.52;100.00;100533.28;6043914;23;20290;-90
2022/10/28 01:49:20;;;;;;;24.97;19.93;;;;;;;11.53;100.00;100532.22;6044819;23;20723;-88
2022/10/28 01:51:50;;;;;;;24.57;20.03;;;;;;;11.53;100.00;100532.22;6068882;23;20220;-89
2022/10/28 01:54:20;;;;;;;23.20;19.37;;;;;;;11.46;100.00;100540.28;6014891;23;20239;-88
2022/10/28 01:56:47;;;;;;;22.87;20.30;;;;;;;11.46;100.00;100545.66;6038489;23;20202;-88
2022/10/28 01:59:18;;;;;;;22.63;19.90;;;;;;;11.48;100.00;100538.19;6038707;23;20220;-88
2022/10/28 02:01:44;;;;;;;22.20;18.87;;;;;;;11.46;100.00;100540.28;6038409;23;20210;-88
2022/10/28 02:04:11;;;;;;;25.13;19.83;;;;;;;11.48;100.00;100538.19;6039580;23;20558;-87
2022/10/28 02:06:40;;;;;;;20.93;18.63;;;;;;;11.43;100.00;100529.94;6038642;23;20659;-91
2022/10/28 02:09:32;;;;;;;21.07;18.57;;;;;;;11.44;100.00;100525.41;6015022;23;20214;-90
2022/10/28 02:12:10;;;;;;;22.80;17.77;;;;;;;11.43;100.00;100521.88;6038449;23;20285;-89
2022/10/28 02:14:57;;;;;;;21.93;18.63;;;;;;;11.40;100.00;100522.31;6038435;23;20247;-85
2022/10/28 02:17:52;;;;;;;25.87;18.40;;;;;;;11.45;100.00;100524.38;6040111;23;20224;-86
2022/10/28 02:20:28;;;;;;;20.37;17.93;;;;;;;11.45;100.00;100516.31;6039743;23;20276;-85
2022/10/28 02:23:09;;;;;;;23.67;17.83;;;;;;;11.47;100.00;100508.91;6039720;23;20214;-85
2022/10/28 02:25:53;;;;;;;21.47;18.13;;;;;;;11.44;100.00;100514.66;6039994;23;20220;-85
2022/10/28 02:28:45;;;;;;;22.20;17.67;;;;;;;11.45;100.00;100508.28;6039316;23;20234;-86
2022/10/28 02:31:25;;;;;;;19.67;17.10;;;;;;;11.42;100.00;100522.94;6038106;23;20229;-85
2022/10/28 02:33:56;;;;;;;20.17;17.87;;;;;;;11.39;100.00;100520.63;6038245;23;20219;-85
2022/10/28 02:36:23;;;;;;;20.33;17.23;;;;;;;11.37;100.00;100509.31;6038321;23;20230;-91
2022/10/28 02:38:54;;;;;;;21.63;18.30;;;;;;;11.36;100.00;100512.19;6039091;23;20206;-90
2022/10/28 02:41:26;;;;;;;20.87;18.17;;;;;;;11.39;100.00;100512.59;6038628;23;20242;-91
2022/10/28 02:43:55;;;;;;;17.70;15.80;;;;;;;11.44;100.00;100517.34;6038591;23;20219;-91
2022/10/28 02:46:23;;;;;;;18.30;16.33;;;;;;;11.44;100.00;100504.75;6014353;23;20293;-91
2022/10/28 02:48:53;;;;;;;17.53;15.70;;;;;;;11.35;100.00;100503.31;6014707;23;20229;-90
2022/10/28 02:51:23;;;;;;;16.13;14.43;;;;;;;11.37;100.00;100509.31;6014845;23;20207;-88
2022/10/28 02:54:09;;;;;;;16.27;14.53;;;;;;;11.38;100.00;100502.09;6038520;23;20561;-90
2022/10/28 02:56:39;;;;;;;16.73;14.93;;;;;;;11.38;100.00;100494.84;6014610;23;20208;-90
2022/10/28 02:59:11;;;;;;;16.50;14.80;;;;;;;11.41;100.00;100491.75;6038036;23;20211;-87
2022/10/28 03:01:38;;;;;;;16.30;14.60;;;;;;;11.42;100.00;100503.31;6014302;23;20238;-88
2022/10/28 03:04:05;;;;;;;16.07;14.30;;;;;;;11.44;100.00;100495.88;6039479;23;20280;-88
2022/10/28 03:06:32;;;;;;;16.80;14.93;;;;;;;11.43;100.00;100496.94;6038198;23;20233;-90
2022/10/28 03:08:59;;;;;;;15.10;13.60;;;;;;;11.34;100.00;100492.75;6014934;23;20216;-91
2022/10/28 03:11:25;;;;;;;17.80;14.97;;;;;;;11.41;100.00;100496.28;6039636;23;20218;-91
2022/10/28 03:13:52;;;;;;;16.93;15.17;;;;;;;11.36;100.00;100485.34;6024916;23;20217;-91
2022/10/28 03:16:19;;;;;;;17.00;15.20;;;;;;;11.37;100.00;100484.31;6012299;23;20215;-88
2022/10/28 03:18:45;;;;;;;17.00;15.27;;;;;;;11.39;100.00;100492.97;6014911;23;20212;-90
2022/10/28 03:21:12;;;;;;;17.40;15.53;;;;;;;11.40;100.00;100508.06;6015054;23;20215;-91
2022/10/28 03:23:39;;;;;;;19.03;17.03;;;;;;;11.35;100.00;100505.97;6037893;23;20221;-88
2022/10/28 03:26:05;;;;;;;17.93;15.93;;;;;;;11.37;100.00;100506.63;6039536;23;20322;-87
2022/10/28 03:28:32;;;;;;;18.80;16.80;;;;;;;11.40;100.00;100502.69;6039503;23;20210;-88
2022/10/28 03:30:58;;;;;;;18.33;16.33;;;;;;;11.34;100.00;100501.63;6039367;23;20290;-90
2022/10/28 03:33:25;;;;;;;18.87;16.37;;;;;;;11.40;100.00;100500.84;6038975;23;20695;-87
2022/10/28 03:35:52;;;;;;;17.97;16.03;;;;;;;11.40;100.00;100494.63;6038984;23;20762;-89
2022/10/28 03:38:18;;;;;;;18.00;15.83;;;;;;;11.36;100.00;100496.09;6001763;23;20209;-89
2022/10/28 03:40:49;;;;;;;18.23;15.20;;;;;;;11.35;100.00;100497.94;6039082;23;20215;-89
2022/10/28 03:43:16;;;;;;;16.67;14.87;;;;;;;11.36;100.00;100499.59;6037572;23;20289;-90
2022/10/28 03:45:43;;;;;;;17.40;15.53;;;;;;;11.39;100.00;100501.03;6037627;23;20209;-88
2022/10/28 03:48:10;;;;;;;16.70;14.60;;;;;;;11.43;100.00;100502.31;6038707;23;20245;-88
2022/10/28 03:50:36;;;;;;;15.13;13.67;;;;;;;11.41;100.00;100493.63;6039321;23;20237;-88
2022/10/28 03:53:03;;;;;;;14.70;13.07;;;;;;;11.42;100.00;100501.47;6042020;23;20738;-87
2022/10/28 03:55:29;;;;;;;14.30;12.87;;;;;;;11.42;100.00;100498.78;6042741;23;20213;-88
2022/10/28 03:57:59;;;;;;;14.33;12.90;;;;;;;11.30;100.00;100486.16;6041999;23;20201;-88
2022/10/28 04:00:26;;;;;;;13.93;12.63;;;;;;;11.27;100.00;100484.72;6041772;23;20209;-88
2022/10/28 04:02:53;;;;;;;13.63;12.27;;;;;;;11.25;100.00;100486.75;6067380;23;20213;-90
2022/10/28 04:05:20;;;;;;;14.70;13.20;;;;;;;11.24;100.00;100492.34;6067707;23;20213;-89
2022/10/28 04:07:47;;;;;;;13.63;12.33;;;;;;;11.22;100.00;100491.72;6067683;23;20269;-90
2022/10/28 04:10:14;;;;;;;15.17;13.67;;;;;;;11.21;100.00;100484.69;6042058;23;20209;-88
2022/10/28 04:12:40;;;;;;;14.30;12.90;;;;;;;11.21;100.00;100490.88;6067593;23;20213;-88
2022/10/28 04:15:07;;;;;;;14.50;13.00;;;;;;;11.20;100.00;100485.75;6042053;23;20539;-87
2022/10/28 04:17:34;;;;;;;14.93;13.47;;;;;;;11.19;100.00;100484.91;6042606;23;20209;-87
2022/10/28 04:20:01;;;;;;;14.60;13.10;;;;;;;11.22;100.00;100491.72;6041391;23;20224;-90
2022/10/28 04:22:27;;;;;;;15.90;14.30;;;;;;;11.24;100.00;100487.81;6042675;23;20202;-88
2022/10/28 04:24:54;;;;;;;15.70;14.00;;;;;;;11.18;100.00;100472.53;6067431;23;20650;-89
2022/10/28 04:27:21;;;;;;;16.30;14.70;;;;;;;11.15;100.00;100483.63;6067064;23;20213;-88
2022/10/28 04:29:47;;;;;;;15.33;13.83;;;;;;;11.16;100.00;100487.16;6067333;23;20551;-89
2022/10/28 04:32:14;;;;;;;15.73;14.13;;;;;;;11.12;100.00;100478.69;6066640;23;20211;-89
2022/10/28 04:34:40;;;;;;;16.33;14.67;;;;;;;11.17;100.00;100488.81;6067406;23;20215;-88
2022/10/28 04:37:07;;;;;;;16.47;14.77;;;;;;;11.15;100.00;100490.88;6041700;23;20204;-89
2022/10/28 04:39:34;;;;;;;15.20;13.60;;;;;;;11.21;100.00;100506.16;6067453;23;20204;-87
2022/10/28 04:42:00;;;;;;;16.33;14.70;;;;;;;11.18;100.00;100511.94;6067181;23;20216;-89
2022/10/28 04:44:27;;;;;;;16.03;14.43;;;;;;;11.16;100.00;100505.94;6066787;23;20215;-89
2022/10/28 04:46:55;;;;;;;16.23;14.60;;;;;;;11.13;100.00;100506.34;6041695;23;20704;-90
2022/10/28 04:49:22;;;;;;;16.30;14.60;;;;;;;11.17;100.00;100502.22;6041403;23;20846;-87
2022/10/28 04:51:48;;;;;;;16.27;14.57;;;;;;;11.23;100.00;100496.06;6066922;23;20216;-85
2022/10/28 04:54:15;;;;;;;16.37;14.77;;;;;;;11.23;100.00;100480.78;6018077;23;20211;-89
2022/10/28 04:56:41;;;;;;;16.13;14.47;;;;;;;11.21;100.00;100482.00;6066810;23;20289;-88
2022/10/28 04:59:08;;;;;;;15.77;14.13;;;;;;;11.23;100.00;100485.31;6067128;23;20216;-87
2022/10/28 05:01:35;;;;;;;15.57;14.03;;;;;;;11.27;100.00;100473.16;6018118;23;20227;-89
2022/10/28 05:04:02;;;;;;;15.53;13.93;;;;;;;11.22;100.00;100465.72;6066692;23;20289;-88
2022/10/28 05:06:29;;;;;;;15.93;13.83;;;;;;;11.22;100.00;100471.09;6067347;23;20218;-88
2022/10/28 05:08:55;;;;;;;15.30;13.70;;;;;;;11.21;100.00;100464.06;6067096;23;20242;-88
2022/10/28 05:11:22;;;;;;;14.50;12.97;;;;;;;11.12;100.00;100462.59;6066922;23;20204;-89
2022/10/28 05:13:51;;;;;;;14.40;13.00;;;;;;;11.11;100.00;100462.78;6066899;23;20205;-88
2022/10/28 05:16:18;;;;;;;15.03;13.57;;;;;;;11.11;100.00;100474.34;6041754;23;20197;-88
2022/10/28 05:18:45;;;;;;;15.50;13.90;;;;;;;11.09;100.00;100468.38;6066703;23;20217;-89
2022/10/28 05:21:11;;;;;;;15.80;14.10;;;;;;;11.12;100.00;100476.00;6041918;23;20203;-89
2022/10/28 05:23:38;;;;;;;15.23;13.63;;;;;;;11.13;100.00;100471.47;6041152;23;20200;-89
2022/10/28 05:26:05;;;;;;;14.60;13.10;;;;;;;11.17;100.00;100470.03;6066683;23;20706;-89
2022/10/28 05:28:32;;;;;;;14.33;12.93;;;;;;;11.10;100.00;100475.41;6041293;23;20737;-88
2022/10/28 05:30:58;;;;;;;15.20;13.60;;;;;;;11.21;100.00;100482.00;6066952;23;20275;-89
2022/10/28 05:33:25;;;;;;;15.50;13.77;;;;;;;11.18;100.00;100480.56;6041443;23;20675;-88
2022/10/28 05:35:51;;;;;;;16.40;14.20;;;;;;;11.14;100.00;100475.81;6067472;23;20189;-88
2022/10/28 05:38:18;;;;;;;15.97;14.27;;;;;;;11.21;100.00;100476.66;6017373;23;20213;-89
2022/10/28 05:40:45;;;;;;;16.43;14.73;;;;;;;11.19;100.00;100481.41;6067877;23;20200;-89
2022/10/28 05:43:11;;;;;;;14.90;13.40;;;;;;;11.22;100.00;100491.72;6041315;23;20271;-90
2022/10/28 05:45:38;;;;;;;16.40;14.20;;;;;;;11.22;100.00;100481.81;6067029;23;20205;-89
2022/10/28 05:48:05;;;;;;;15.63;14.03;;;;;;;11.24;100.00;100490.50;6041572;23;20189;-89
2022/10/28 05:50:32;;;;;;;17.20;15.03;;;;;;;11.25;100.00;100493.97;6041380;23;20206;-88
2022/10/28 05:52:58;;;;;;;16.13;13.97;;;;;;;11.18;100.00;100487.78;6041358;23;20211;-86
2022/10/28 05:55:27;;;;;;;16.20;14.50;;;;;;;11.25;100.00;100488.63;6067221;23;20210;-88
2022/10/28 05:57:54;;;;;;;15.37;13.77;;;;;;;11.25;100.00;100492.13;6041918;23;20244;-87
2022/10/28 06:00:23;;;;;;;15.20;13.67;;;;;;;11.25;100.00;100486.75;6041301;23;20219;-89
2022/10/28 06:02:50;;;;;;;15.83;14.13;;;;;;;11.32;100.00;100473.38;6041580;23;20743;-90
2022/10/28 06:05:17;;;;;;;15.47;13.80;;;;;;;11.36;100.00;100467.41;6041159;23;20206;-90
2022/10/28 06:07:43;;;;;;;14.53;12.90;;;;;;;11.34;100.00;100468.63;6067688;23;20197;-89
2022/10/28 06:10:10;;;;;;;15.07;13.23;;;;;;;11.36;100.00;100480.81;6040963;23;20214;-90
2022/10/28 06:12:37;;;;;;;14.40;12.93;;;;;;;11.35;100.00;100489.06;6067211;23;20202;-91
2022/10/28 06:15:05;;;;;;;15.03;12.90;;;;;;;11.35;100.00;100487.19;6020350;23;20218;-93
2022/10/28 06:17:33;;;;;;;14.43;12.87;;;;;;;11.36;100.00;100493.41;6019856;23;20214;-93
2022/10/28 06:19:59;;;;;;;15.43;13.83;;;;;;;11.31;100.00;100509.28;6019077;23;20293;-93
2022/10/28 06:22:26;;;;;;;15.67;12.83;;;;;;;11.33;100.00;100508.06;6018899;23;20221;-93
2022/10/28 06:24:53;;;;;;;14.80;13.20;;;;;;;11.41;100.00;100509.72;5997693;23;20209;-93
2022/10/28 06:27:19;;;;;;;16.83;13.90;;;;;;;11.49;100.00;100510.34;5997323;23;20343;-92
2022/10/28 06:29:46;;;;;;;14.60;13.10;;;;;;;11.44;100.00;100509.28;5996607;23;20237;-93
2022/10/28 06:32:13;;;;;;;14.77;13.23;;;;;;;11.44;100.00;100506.63;6018827;23;20218;-90
2022/10/28 06:34:39;;;;;;;15.73;13.40;;;;;;;11.38;100.00;100513.63;6020167;23;20209;-92
2022/10/28 06:37:06;;;;;;;15.33;13.37;;;;;;;11.40;100.00;100514.25;6043658;23;20215;-91
2022/10/28 06:39:33;;;;;;;14.63;13.10;;;;;;;11.49;100.00;100513.03;6043948;23;20223;-92
2022/10/28 06:42:00;;;;;;;13.90;12.50;;;;;;;11.49;100.00;100509.50;5996980;23;20231;-92
2022/10/28 06:44:26;;;;;;;14.83;13.30;;;;;;;11.51;100.00;100514.69;6042416;23;20268;-91
2022/10/28 06:46:54;;;;;;;14.40;12.90;;;;;;;11.52;100.00;100519.84;6020682;23;20285;-91
2022/10/28 06:49:21;;;;;;;14.23;12.73;;;;;;;11.59;100.00;100523.38;5996765;23;20209;-91
2022/10/28 06:51:48;;;;;;;13.53;12.13;;;;;;;11.65;100.00;100527.94;6020420;23;20219;-92
2022/10/28 06:54:15;;;;;;;13.90;12.50;;;;;;;11.67;100.00;100519.66;5994663;23;20269;-91
2022/10/28 06:56:44;;;;;;;13.97;12.57;;;;;;;11.72;100.00;100519.84;6019928;23;20203;-89
2022/10/28 06:59:11;;;;;;;14.83;12.13;;;;;;;11.80;100.00;100523.19;6042806;23;20296;-90
2022/10/28 07:01:37;;;;;;;14.17;12.33;;;;;;;11.84;100.00;100513.72;5996676;23;20220;-92
2022/10/28 07:04:05;;;;;;;13.80;12.17;;;;;;;11.86;100.00;100519.69;5995794;23;20215;-90
2022/10/28 07:06:32;;;;;;;14.40;11.97;;;;;;;11.89;100.00;100510.41;6043789;23;20218;-91
2022/10/28 07:08:58;;;;;;;14.23;12.73;;;;;;;11.93;100.00;100513.50;6019656;23;20208;-92
2022/10/28 07:11:25;;;;;;;12.70;11.40;;;;;;;11.99;100.00;100523.44;6020400;23;20710;-91
2022/10/28 07:13:52;;;;;;;12.03;10.83;;;;;;;11.98;100.00;100514.56;6019604;23;20216;-92
2022/10/28 07:16:18;;;;;;;13.13;11.90;;;;;;;12.06;100.00;100526.94;6001640;23;20213;-91
2022/10/28 07:18:46;;;;;;;12.97;11.67;;;;;;;12.10;100.00;100518.25;6023881;23;20206;-91
2022/10/28 07:21:13;;;;;;;12.53;11.23;;;;;;;12.14;100.00;100527.53;6018688;23;20218;-92
2022/10/28 07:23:39;;;;;;;12.00;10.80;;;;;;;12.19;100.00;100537.66;6018970;23;20218;-91
2022/10/28 07:26:06;;;;;;;11.30;10.13;;;;;;;12.20;100.00;100534.78;6018509;23;20271;-92
2022/10/28 07:28:33;;;;;;;12.07;10.90;;;;;;;12.26;100.00;100539.31;6019814;23;20716;-92
2022/10/28 07:31:01;;;;;;;11.40;10.20;;;;;;;12.36;100.00;100536.22;6019712;23;20211;-89
2022/10/28 07:33:28;;;;;;;11.50;10.37;;;;;;;12.39;100.00;100534.94;6043344;23;20241;-91
2022/10/28 07:35:54;;;;;;;11.30;10.10;;;;;;;12.45;100.00;100531.44;6067499;23;20219;-90
2022/10/28 07:38:21;;;;;;;10.70;9.70;;;;;;;12.50;100.00;100529.78;6018223;23;21412;-91
2022/10/28 07:40:48;;;;;;;10.80;9.80;;;;;;;12.60;100.00;100534.69;6019683;23;20212;-91
2022/10/28 07:43:14;;;;;;;10.47;9.47;;;;;;;12.70;100.00;100527.84;6042963;23;20243;-92
2022/10/28 07:45:41;;;;;;;11.00;9.73;;;;;;;12.76;100.00;100526.19;6019468;23;20299;-90
2022/10/28 07:48:08;;;;;;;9.70;8.80;;;;;;;12.81;100.00;100531.75;5995506;23;20223;-91
2022/10/28 07:50:35;;;;;;;9.57;8.67;;;;;;;12.84;100.00;100533.16;6019903;23;20297;-91
2022/10/28 07:53:01;;;;;;;11.87;10.67;;;;;;;12.84;100.00;100536.69;6019344;23;20242;-92
2022/10/28 07:55:28;;;;;;;12.07;10.87;;;;;;;12.83;100.00;100531.53;5996114;23;20205;-89
2022/10/28 07:57:55;;;;;;;10.97;9.87;;;;;;;12.83;100.00;100539.63;6042145;23;20703;-92
2022/10/28 08:00:22;;;;;;;12.33;11.13;;;;;;;12.81;100.00;100537.13;6049564;23;20202;-92
2022/10/28 08:02:49;;;;;;;10.93;9.90;;;;;;;12.86;100.00;100534.63;6024154;23;20214;-91
2022/10/28 08:05:16;;;;;;;10.90;9.90;;;;;;;12.82;100.00;100541.47;6019282;23;20215;-92
2022/10/28 08:07:43;;;;;;;12.47;11.27;;;;;;;12.73;100.00;100532.81;6019488;23;20211;-92
2022/10/28 08:10:10;;;;;;;11.90;10.70;;;;;;;12.80;100.00;100533.59;6042608;23;20209;-91
2022/10/28 08:12:36;;;;;;;11.10;10.07;;;;;;;12.89;100.00;100533.38;6043033;23;20212;-91
2022/10/28 08:15:04;;;;;;;11.60;10.37;;;;;;;12.92;100.00;100541.84;6018851;23;20290;-91
2022/10/28 08:17:31;;;;;;;20.00;14.77;;;;;;;13.00;100.00;100547.00;6019165;23;20215;-92
2022/10/28 08:19:57;;;;;;;10.77;9.77;;;;;;;13.01;100.00;100539.75;6019435;23;20515;-91
2022/10/28 08:22:24;;;;;;;10.30;9.30;;;;;;;13.02;100.00;100542.19;6041713;23;20203;-91
2022/10/28 08:24:51;;;;;;;10.37;9.37;;;;;;;13.06;100.00;100548.00;6018615;23;20251;-91
2022/10/28 08:27:17;;;;;;;9.90;9.00;;;;;;;13.04;100.00;100542.84;6043016;23;20207;-92
2022/10/28 08:29:44;;;;;;;10.40;9.43;;;;;;;13.08;100.00;100543.22;6042773;23;20215;-91
2022/10/28 08:32:10;;;;;;;10.20;9.20;;;;;;;13.14;100.00;100531.66;6019040;23;20226;-89
2022/10/28 08:34:37;;;;;;;10.63;9.63;;;;;;;13.20;100.00;100547.75;6019323;23;20522;-91
2022/10/28 08:37:09;;;;;;;10.23;9.27;;;;;;;13.23;100.00;100535.75;6068243;23;20698;-92
2022/10/28 08:39:35;;;;;;;10.67;9.57;;;;;;;13.39;100.00;100537.13;6019290;23;20662;-91
2022/10/28 08:42:28;;;;;;;10.50;9.20;;;;;;;13.53;100.00;100536.00;6018928;23;20216;-91
2022/10/28 08:45:33;;;;;;;10.17;9.17;;;;;;;13.61;100.00;100536.56;6007128;23;20215;-92
2022/10/28 08:48:14;;;;;;;9.83;8.93;;;;;;;13.66;100.00;100533.22;6042974;23;20223;-91
2022/10/28 08:50:55;;;;;;;10.90;9.73;;;;;;;13.78;100.00;100517.97;6018635;23;20219;-92
2022/10/28 08:53:29;;;;;;;10.10;9.20;;;;;;;13.97;100.00;100514.31;6042596;23;20244;-92
2022/10/28 08:56:07;;;;;;;11.00;9.90;;;;;;;14.09;100.00;100517.13;6043470;23;20217;-91
2022/10/28 08:58:35;;;;;;;10.30;9.40;;;;;;;14.22;100.00;100526.94;6042938;23;20205;-90
2022/10/28 09:01:04;;;;;;;9.60;8.70;;;;;;;14.17;100.00;100519.53;6041847;23;20204;-90
2022/10/28 09:03:39;;;;;;;10.10;9.20;;;;;;;14.23;100.00;100520.53;6019691;23;20267;-91
2022/10/28 09:06:08;;;;;;;9.57;8.77;;;;;;;14.29;100.00;100527.69;6042599;23;20229;-91
2022/10/28 09:08:38;;;;;;;10.30;9.30;;;;;;;14.28;100.00;100526.88;6042741;23;20209;-89
2022/10/28 09:11:29;;;;;;;10.40;9.50;;;;;;;14.27;100.00;100533.34;5995917;23;20236;-92
2022/10/28 09:14:20;;;;;;;10.40;9.40;;;;;;;14.14;100.00;100535.31;6042669;23;20216;-91
2022/10/28 09:17:16;;;;;;;11.00;9.90;;;;;;;14.15;100.00;100524.31;6042275;23;20288;-90
2022/10/28 09:20:08;;;;;;;10.73;9.73;;;;;;;14.22;100.00;100519.69;6019573;23;20213;-91
2022/10/28 09:22:51;;;;;;;11.03;10.03;;;;;;;14.21;100.00;100536.91;6017741;23;20676;-90
2022/10/28 09:25:37;;;;;;;12.70;11.40;;;;;;;14.01;100.00;100541.63;5994374;23;20216;-90
2022/10/28 09:28:36;;;;;;;11.43;10.33;;;;;;;13.96;100.00;100542.28;6039153;23;20235;-90
2022/10/28 09:31:23;;;;;;;10.97;9.97;;;;;;;14.10;100.00;100545.69;6042316;23;20239;-91
2022/10/28 09:34:02;;;;;;;10.83;9.83;;;;;;;14.06;100.00;100550.72;6030894;23;20214;-92
2022/10/28 09:36:34;;;;;;;11.17;10.17;;;;;;;14.02;100.00;100551.38;6066991;23;20209;-91
2022/10/28 09:39:02;;;;;;;10.20;9.20;;;;;;;14.02;100.00;100551.38;6042302;23;20271;-91
2022/10/28 09:41:39;;;;;;;10.43;9.47;;;;;;;13.95;100.00;100537.94;6041679;23;20209;-91
2022/10/28 09:44:26;;;;;;;10.37;9.47;;;;;;;14.07;100.00;100544.28;6040740;23;20211;-90
2022/10/28 09:46:56;;;;;;;10.63;9.70;;;;;;;14.10;100.00;100553.78;6041779;23;20209;-89
2022/10/28 09:49:35;;;;;;;12.33;11.13;;;;;;;14.27;100.00;100544.13;6018326;23;20193;-92
2022/10/28 09:52:07;;;;;;;10.97;9.97;;;;;;;14.24;100.00;100546.41;6016931;23;20212;-90
2022/10/28 09:54:41;;;;;;;11.27;10.17;;;;;;;14.27;100.00;100541.41;6042279;23;20215;-91
2022/10/28 09:57:07;;;;;;;11.10;10.00;;;;;;;14.26;100.00;100533.53;6043534;23;20239;-91
2022/10/28 09:59:38;;;;;;;11.60;10.50;;;;;;;14.46;100.00;100534.22;6045458;23;20741;-91
2022/10/28 10:02:04;;;;;;;10.63;9.57;;;;;;;14.60;100.00;100524.94;6043909;23;20220;-91
2022/10/28 10:04:31;;;;;;;11.10;10.00;;;;;;;14.69;100.00;100533.56;6000490;23;20210;-90
2022/10/28 10:07:04;;;;;;;10.80;9.80;;;;;;;14.71;100.00;100537.66;5979820;23;20216;-91
2022/10/28 10:09:32;;;;;;;11.23;10.13;;;;;;;14.85;100.00;100532.94;6044714;23;20215;-91
2022/10/28 10:12:02;;;;;;;10.47;9.47;;;;;;;14.93;100.00;100530.75;6021308;23;20220;-91
2022/10/28 10:14:35;;;;;;;10.07;9.23;;;;;;;14.87;100.00;100545.16;6020207;23;20215;-91
2022/10/28 10:17:05;;;;;;;11.70;10.50;;;;;;;14.95;100.00;100547.56;6021056;23;20710;-91
2022/10/28 10:20:11;;;;;;;10.77;9.67;;;;;;;15.11;100.00;100539.91;6044291;23;20583;-91
2022/10/28 10:22:45;;;;;;;9.97;9.07;;;;;;;15.17;100.00;100538.97;6024680;23;20271;-91
2022/10/28 10:25:18;;;;;;;10.10;9.20;;;;;;;15.16;100.00;100551.69;6044278;23;20566;-90
2022/10/28 10:28:00;;;;;;;10.10;9.20;;;;;;;15.17;100.00;100552.47;6044288;23;20283;-92
2022/10/28 10:30:33;;;;;;;9.37;8.47;;;;;;;15.24;100.00;100551.34;6044333;23;20654;-90
2022/10/28 10:33:01;;;;;;;9.93;9.07;;;;;;;15.24;100.00;100550.53;6069838;23;20213;-91
2022/10/28 10:35:30;;;;;;;10.10;9.20;;;;;;;15.26;100.00;100545.72;6013581;23;20232;-90
2022/10/28 10:37:58;;;;;;;10.43;9.43;;;;;;;15.08;100.00;100533.06;6014658;23;20233;-91
2022/10/28 10:40:29;;;;;;;10.27;9.37;;;;;;;15.23;100.00;100538.06;6044297;23;20209;-91
2022/10/28 10:43:16;;;;;;;9.97;9.07;;;;;;;15.27;100.00;100536.56;6044928;23;20208;-91
2022/10/28 10:46:02;;;;;;;10.10;9.20;;;;;;;15.35;100.00;100538.97;6044398;23;20626;-91
2022/10/28 10:48:31;;;;;;;10.83;9.93;;;;;;;15.33;100.00;100536.47;6043997;23;20205;-91
2022/10/28 10:51:04;;;;;;;11.03;10.00;;;;;;;15.30;100.00;100530.72;5997156;23;20209;-91
2022/10/28 10:53:31;;;;;;;10.27;9.37;;;;;;;15.32;100.00;100523.22;6044359;23;20236;-91
2022/10/28 10:56:01;;;;;;;10.27;9.37;;;;;;;15.38;100.00;100530.41;5997334;23;20215;-90
2022/10/28 10:58:31;;;;;;;10.20;9.30;;;;;;;15.31;100.00;100519.69;6020324;23;20205;-90
2022/10/28 11:01:00;;;;;;;10.60;9.60;;;;;;;15.45;100.00;100523.00;6020071;23;20213;-91
2022/10/28 11:03:28;;;;;;;10.50;9.50;;;;;;;15.38;100.00;100531.22;6019770;23;20686;-90
2022/10/28 11:05:56;;;;;;;10.43;9.53;;;;;;;15.26;100.00;100524.09;6020138;23;20217;-91
2022/10/28 11:08:43;;;;;;;11.00;10.00;;;;;;;14.99;100.00;100518.25;6047928;23;20220;-91
2022/10/28 11:11:20;;;;;;;12.17;11.07;;;;;;;14.91;100.00;100522.09;6020213;23;20212;-90
2022/10/28 11:14:02;;;;;;;11.33;10.33;;;;;;;14.57;100.00;100519.97;6020384;23;20215;-91
2022/10/28 11:16:29;;;;;;;10.50;9.50;;;;;;;14.49;100.00;100512.19;6020438;23;20214;-91
2022/10/28 11:18:55;;;;;;;10.60;9.63;;;;;;;14.51;100.00;100524.38;6044031;23;20213;-91
2022/10/28 11:21:36;;;;;;;11.33;10.27;;;;;;;14.60;100.00;100527.63;6020292;23;20228;-92